In Rescue
 
Open Full Screen Window  High Contrast Mode
Wind Gusting 00 knots
06
April 19, 2021 8:47 PM CDT
Weather Information
Wind Direction
  320 °
Wind Speed
  06 kt (7 mph)
Wind Gust
  00 kt (0 mph)
Altimeter
30.00 in
Visibility
10 SM
Temperature
-01° C
30° F
Dewpoint
-12° C
10° F
Humidity
43%
1hr Rain Fall
00.00 in.
24hr Rain Fall
00.00 in.
Sky Condition
Broken @ 6,500 ft
Scattered @ 5,000 ft
VFR

METAR KORB 200147Z AUTO 32006KT 10SM SCT050 BKN065 M01/M12 A3000 RMK AO2

FAA Disclaimer: The data displayed is for advisory purposes only and is not to be used for flight planning or operations.